Time;durP1;ratioP1;P1;durP2;ratioP2;P2;SDS_P1;SDS_P2;PMS_P1;PMS_P2;Temp;Humidity;BMP_temperature;BMP_pressure;BME280_temperature;BME280_humidity;BME280_pressure;Samples;Min_cycle;Max_cycle;Signal;HPM_P1;HPM_P2
2022/05/22 00:01:21;;;;;;;9.77;8.15;;;;;;;20.65;61.43;100052.69;5108146;28;20083;-68
2022/05/22 00:03:48;;;;;;;9.60;7.93;;;;;;;20.67;60.98;100058.81;5113631;27;20068;-66
2022/05/22 00:06:14;;;;;;;9.63;7.30;;;;;;;20.73;60.79;100055.38;5113437;28;20131;-67
2022/05/22 00:08:41;;;;;;;12.57;7.50;;;;;;;20.58;60.71;100031.44;5125839;27;20569;-67
2022/05/22 00:11:08;;;;;;;8.82;7.80;;;;;;;20.44;60.97;100033.81;5130783;27;20524;-66
2022/05/22 00:13:35;;;;;;;7.68;7.00;;;;;;;20.77;60.81;100058.31;5114627;28;20078;-68
2022/05/22 00:18:48;;;;;;;13.10;8.10;;;;;;;20.75;60.77;100063.50;5125447;27;20122;-67
2022/05/22 00:21:15;;;;;;;8.38;7.60;;;;;;;20.68;60.57;100041.44;5101844;28;20582;-66
2022/05/22 00:23:43;;;;;;;10.05;7.95;;;;;;;20.70;60.63;100038.25;5111944;28;20122;-65
2022/05/22 00:26:11;;;;;;;9.30;7.65;;;;;;;20.80;60.36;100049.06;5115843;28;20121;-66
2022/05/22 00:28:38;;;;;;;7.70;6.93;;;;;;;20.75;60.57;100050.19;5115926;28;20075;-67
2022/05/22 00:31:04;;;;;;;8.55;7.72;;;;;;;20.82;60.31;100053.22;5124560;27;20532;-67
2022/05/22 00:33:32;;;;;;;8.90;8.02;;;;;;;20.80;60.36;100051.91;5115749;28;20075;-67
2022/05/22 00:35:59;;;;;;;7.78;6.97;;;;;;;20.56;60.43;100010.28;5110032;28;20226;-67
2022/05/22 00:38:26;;;;;;;10.48;8.25;;;;;;;20.59;60.84;100044.44;5113944;28;20267;-67
2022/05/22 00:40:53;;;;;;;11.85;7.15;;;;;;;20.58;60.69;100059.81;5115342;28;20134;-67
2022/05/22 00:43:29;;;;;;;8.95;7.22;;;;;;;20.57;60.74;100051.66;5115328;28;20090;-67
2022/05/22 00:45:58;;;;;;;8.43;7.32;;;;;;;20.75;60.40;100055.84;5115246;28;20094;-67
2022/05/22 00:48:27;;;;;;;11.37;8.43;;;;;;;20.69;60.39;100042.28;5114393;28;20048;-68
2022/05/22 00:51:20;;;;;;;9.68;7.38;;;;;;;20.53;60.82;100045.88;5114736;28;20126;-67
2022/05/22 00:54:00;;;;;;;8.30;7.75;;;;;;;20.55;60.66;100049.19;5113206;28;20086;-67
2022/05/22 00:56:43;;;;;;;9.30;8.38;;;;;;;20.49;60.48;100039.25;5114913;28;20137;-67
2022/05/22 00:59:19;;;;;;;11.07;7.60;;;;;;;20.70;60.47;100044.75;5115455;28;20043;-67
2022/05/22 01:01:48;;;;;;;8.75;7.38;;;;;;;20.80;60.33;100041.38;5113954;28;20120;-67
2022/05/22 01:04:23;;;;;;;11.38;7.80;;;;;;;20.74;60.36;100019.31;5105755;28;20128;-66
2022/05/22 01:06:51;;;;;;;8.18;7.45;;;;;;;20.91;60.35;100036.00;5108183;28;20078;-66
2022/05/22 01:09:18;;;;;;;10.40;8.25;;;;;;;20.99;60.24;100037.03;5115091;28;20134;-67
2022/05/22 01:11:47;;;;;;;9.20;8.10;;;;;;;20.94;60.45;100038.13;5109262;27;20131;-67
2022/05/22 01:14:18;;;;;;;9.07;8.18;;;;;;;20.98;59.95;100029.69;5113846;28;20082;-67
2022/05/22 01:16:47;;;;;;;10.15;8.20;;;;;;;20.99;59.86;100034.19;5108328;28;20076;-67
2022/05/22 01:19:16;;;;;;;8.07;7.55;;;;;;;21.05;59.83;100024.22;5111587;27;20058;-66
2022/05/22 01:21:55;;;;;;;9.05;8.25;;;;;;;20.92;59.69;100009.28;5109630;28;20218;-67
2022/05/22 01:24:22;;;;;;;11.25;7.80;;;;;;;21.03;59.84;100013.25;5114729;28;20130;-66
2022/05/22 01:26:51;;;;;;;8.48;7.85;;;;;;;21.05;59.81;100005.16;5113528;28;20094;-67
2022/05/22 01:29:18;;;;;;;7.70;6.93;;;;;;;20.83;60.06;100002.94;5111811;28;20497;-66
2022/05/22 01:31:46;;;;;;;8.77;8.10;;;;;;;20.73;59.86;99975.09;5111609;28;20473;-67
2022/05/22 01:34:13;;;;;;;9.20;7.78;;;;;;;20.38;60.06;99924.69;5112378;28;20463;-67
2022/05/22 01:36:40;;;;;;;9.20;8.07;;;;;;;20.63;60.29;99989.81;5113840;28;20087;-66
2022/05/22 01:39:07;;;;;;;8.85;7.75;;;;;;;20.66;60.00;99980.59;5114268;28;20047;-68
2022/05/22 01:41:35;;;;;;;13.70;10.25;;;;;;;20.61;59.91;99978.00;5107523;28;20082;-68
2022/05/22 01:44:02;;;;;;;8.35;7.63;;;;;;;20.31;60.61;99953.66;5113919;28;20471;-69
2022/05/22 01:46:29;;;;;;;8.02;7.30;;;;;;;20.49;60.68;99981.69;5114188;28;20044;-68
2022/05/22 01:48:56;;;;;;;8.30;7.45;;;;;;;20.38;60.61;99972.88;5104048;28;20058;-67
2022/05/22 01:51:26;;;;;;;11.13;7.80;;;;;;;20.50;60.41;99984.19;5105143;28;20131;-66
2022/05/22 01:53:53;;;;;;;10.13;7.53;;;;;;;20.51;60.04;99980.19;5111422;27;20082;-66
2022/05/22 01:56:21;;;;;;;8.88;8.05;;;;;;;20.58;60.11;99983.22;5113643;28;20091;-66
2022/05/22 01:58:47;;;;;;;9.18;8.40;;;;;;;20.71;60.02;100001.00;5113977;28;20047;-66
2022/05/22 02:01:14;;;;;;;10.65;8.15;;;;;;;20.61;60.24;99978.81;5112505;28;20151;-66
2022/05/22 02:03:41;;;;;;;12.85;7.40;;;;;;;20.63;60.12;99984.16;5104272;28;20190;-66
2022/05/22 02:06:08;;;;;;;8.02;7.35;;;;;;;20.55;60.19;99981.09;5100131;27;20075;-67
2022/05/22 02:08:38;;;;;;;9.40;8.57;;;;;;;20.43;60.45;99955.59;5113603;28;20126;-67
2022/05/22 02:11:06;;;;;;;7.90;7.20;;;;;;;20.55;60.06;99974.63;5113726;28;20051;-67
2022/05/22 02:13:40;;;;;;;8.85;7.88;;;;;;;20.34;60.44;99960.59;5113643;28;20047;-67
2022/05/22 02:16:06;;;;;;;8.13;7.43;;;;;;;20.30;60.70;99983.16;5112347;28;20135;-67
2022/05/22 02:18:34;;;;;;;13.43;7.63;;;;;;;20.20;61.05;99971.50;5099753;28;20093;-67
2022/05/22 02:21:02;;;;;;;10.00;8.63;;;;;;;20.09;61.15;99963.53;5094680;28;20126;-67
2022/05/22 02:23:32;;;;;;;12.52;8.23;;;;;;;20.08;61.10;99961.88;5093440;28;20127;-67
2022/05/22 02:25:59;;;;;;;8.93;8.05;;;;;;;20.25;60.57;99982.63;5094327;28;20210;-67
2022/05/22 02:28:27;;;;;;;19.83;9.30;;;;;;;20.39;60.42;99988.69;5097438;28;20079;-67
2022/05/22 02:30:58;;;;;;;8.77;8.00;;;;;;;20.45;60.20;99980.78;5113265;28;20127;-67
2022/05/22 02:33:26;;;;;;;15.82;8.63;;;;;;;20.34;60.46;99964.28;5106791;28;20047;-67
2022/05/22 02:35:53;;;;;;;10.93;8.80;;;;;;;20.24;60.49;99969.59;5113126;28;20465;-66
2022/05/22 02:38:20;;;;;;;11.52;8.52;;;;;;;20.41;60.29;99979.81;5112493;28;20082;-68
2022/05/22 02:40:47;;;;;;;10.68;8.60;;;;;;;20.37;60.17;99974.03;5108161;28;20084;-68
2022/05/22 02:43:14;;;;;;;10.70;8.07;;;;;;;20.39;60.36;99985.88;5115900;27;20135;-68
2022/05/22 02:45:41;;;;;;;8.27;7.57;;;;;;;20.35;60.25;99977.25;5112667;28;20079;-68
2022/05/22 02:48:10;;;;;;;9.65;8.77;;;;;;;20.36;60.22;99975.25;5106693;28;20039;-68
2022/05/22 02:50:38;;;;;;;13.73;8.25;;;;;;;20.46;59.98;99985.25;5112651;28;20087;-66
2022/05/22 02:53:06;;;;;;;10.55;8.45;;;;;;;20.33;60.23;99978.78;5103910;28;20573;-66
2022/05/22 02:55:33;;;;;;;11.25;8.40;;;;;;;20.39;60.04;99994.38;5094410;28;20518;-66
2022/05/22 02:58:00;;;;;;;10.35;8.20;;;;;;;20.28;60.27;99984.75;5112979;28;20048;-66
2022/05/22 03:00:30;;;;;;;11.00;7.97;;;;;;;20.29;60.29;99986.38;5107356;28;20083;-67
2022/05/22 03:02:58;;;;;;;12.75;8.15;;;;;;;20.29;60.30;99983.53;5100198;28;20044;-67
2022/05/22 03:05:27;;;;;;;9.13;8.23;;;;;;;20.44;59.87;99985.59;5106819;28;20051;-67
2022/05/22 03:07:53;;;;;;;8.93;8.20;;;;;;;20.41;59.75;99963.66;5109953;28;20153;-66
2022/05/22 03:10:21;;;;;;;12.38;8.43;;;;;;;20.59;59.67;99976.34;5112492;28;20177;-66
2022/05/22 03:12:48;;;;;;;10.63;8.45;;;;;;;20.67;59.68;99987.91;5108420;28;20048;-66
2022/05/22 03:15:15;;;;;;;13.05;7.85;;;;;;;20.67;59.45;99982.22;5092808;28;20123;-67
2022/05/22 03:17:42;;;;;;;8.07;7.38;;;;;;;20.61;59.54;99986.50;5099172;28;20047;-66
2022/05/22 03:20:10;;;;;;;8.50;7.80;;;;;;;20.68;59.37;99972.50;5112865;28;20094;-67
2022/05/22 03:22:37;;;;;;;9.43;8.52;;;;;;;20.72;59.35;99987.66;5105121;28;20165;-67
2022/05/22 03:25:06;;;;;;;9.98;8.18;;;;;;;20.76;59.40;99980.88;5111407;28;20494;-67
2022/05/22 03:27:33;;;;;;;12.85;7.68;;;;;;;20.59;59.46;99976.34;5112211;28;20123;-67
2022/05/22 03:30:01;;;;;;;10.15;7.85;;;;;;;20.56;58.88;99976.25;5112408;28;20043;-67
2022/05/22 03:32:28;;;;;;;11.07;8.10;;;;;;;20.57;58.94;99981.56;5109209;28;20075;-67
2022/05/22 03:34:56;;;;;;;8.43;7.63;;;;;;;20.48;58.94;99986.56;5095907;28;20501;-67
2022/05/22 03:37:26;;;;;;;8.75;7.90;;;;;;;20.44;59.06;99982.75;5100840;28;20130;-68
2022/05/22 03:39:53;;;;;;;8.50;7.90;;;;;;;20.26;59.07;99968.06;5102091;28;20048;-67
2022/05/22 03:42:20;;;;;;;15.63;8.30;;;;;;;20.21;59.21;99988.19;5094102;28;20052;-67
2022/05/22 03:44:47;;;;;;;14.23;8.07;;;;;;;20.04;59.17;99968.63;5112933;28;20078;-68
2022/05/22 03:47:14;;;;;;;11.20;8.80;;;;;;;20.29;59.10;99992.06;5111092;28;20135;-68
2022/05/22 03:49:46;;;;;;;10.52;7.93;;;;;;;20.28;59.06;99994.06;5106878;28;20055;-68
2022/05/22 03:52:13;;;;;;;8.90;8.13;;;;;;;19.96;59.18;99952.56;5094315;28;20560;-69
2022/05/22 03:54:40;;;;;;;9.63;9.02;;;;;;;20.26;58.80;99987.91;5111785;28;20134;-67
2022/05/22 03:57:09;;;;;;;13.85;8.73;;;;;;;20.35;58.59;99990.63;5110114;28;20138;-68
2022/05/22 03:59:41;;;;;;;9.20;8.55;;;;;;;20.31;58.82;99984.84;5110041;28;20051;-68
2022/05/22 04:02:08;;;;;;;10.10;9.20;;;;;;;20.31;58.85;99986.84;5114831;28;20047;-69
2022/05/22 04:04:35;;;;;;;10.77;9.95;;;;;;;20.24;58.69;99978.13;5109852;28;20676;-69
2022/05/22 04:07:03;;;;;;;9.20;8.50;;;;;;;20.03;59.18;99973.47;5115969;28;20083;-68
2022/05/22 04:09:29;;;;;;;9.05;8.20;;;;;;;20.09;59.33;99997.53;5117248;27;20071;-68
2022/05/22 04:11:56;;;;;;;8.98;8.18;;;;;;;20.11;58.87;99995.19;5113302;28;20171;-68
2022/05/22 04:14:24;;;;;;;8.32;7.75;;;;;;;20.05;58.99;99976.75;5111909;28;20142;-68
2022/05/22 04:16:52;;;;;;;7.85;7.20;;;;;;;20.12;59.28;99985.47;5115913;28;20134;-68
2022/05/22 04:19:18;;;;;;;7.95;7.25;;;;;;;19.61;59.33;99925.59;5113003;28;20139;-68
2022/05/22 04:21:45;;;;;;;7.65;7.07;;;;;;;19.71;59.25;99951.81;5115285;28;20142;-68
2022/05/22 04:27:16;;;;;;;7.05;6.63;;;;;;;19.91;59.48;100007.50;5004661;28;20077;-68
2022/05/22 04:29:43;;;;;;;7.28;6.78;;;;;;;19.59;59.49;99950.63;5079162;28;20131;-68
2022/05/22 04:32:10;;;;;;;7.47;6.97;;;;;;;19.56;59.43;99945.69;5106601;27;20479;-68
2022/05/22 04:34:37;;;;;;;6.72;6.22;;;;;;;19.80;59.47;99978.03;5116453;27;20134;-69
2022/05/22 04:37:04;;;;;;;12.82;7.00;;;;;;;19.78;59.47;99966.19;5115585;28;20138;-66
2022/05/22 04:39:31;;;;;;;7.00;6.40;;;;;;;19.80;59.69;99972.34;5112186;28;20127;-67
2022/05/22 04:41:58;;;;;;;7.28;6.72;;;;;;;19.44;60.19;99948.50;5112832;28;20086;-67
2022/05/22 04:44:24;;;;;;;9.00;8.05;;;;;;;19.63;60.50;99996.09;5114607;28;20067;-67
2022/05/22 04:46:51;;;;;;;8.55;7.15;;;;;;;19.45;60.79;99986.97;5094956;28;20138;-66
2022/05/22 04:49:18;;;;;;;7.78;7.18;;;;;;;19.44;60.87;99993.81;5115820;27;20043;-66
2022/05/22 04:51:45;;;;;;;7.43;7.03;;;;;;;19.42;61.14;99979.19;5113479;28;20138;-67
2022/05/22 04:54:12;;;;;;;9.88;9.23;;;;;;;19.60;60.66;99986.25;5096366;28;20090;-67
2022/05/22 04:56:39;;;;;;;8.15;7.50;;;;;;;19.52;60.82;99977.88;5106588;28;20144;-66
2022/05/22 04:59:06;;;;;;;7.15;6.75;;;;;;;19.49;61.09;99982.25;5115302;28;20138;-66
2022/05/22 05:01:32;;;;;;;7.20;6.82;;;;;;;19.61;61.03;99990.75;5117450;28;20048;-67
2022/05/22 05:04:00;;;;;;;6.90;6.40;;;;;;;19.43;60.80;99963.84;5111884;28;20199;-67
2022/05/22 05:06:30;;;;;;;8.27;7.63;;;;;;;19.60;61.25;99991.94;5104740;28;20563;-67
2022/05/22 05:08:57;;;;;;;6.63;6.30;;;;;;;19.52;61.16;99987.22;5114820;28;20236;-66
2022/05/22 05:11:24;;;;;;;7.10;6.60;;;;;;;19.44;61.84;100002.31;5115606;27;20438;-70
2022/05/22 05:13:51;;;;;;;7.53;6.78;;;;;;;19.31;62.40;99989.31;5115205;28;20134;-69
2022/05/22 05:16:18;;;;;;;7.18;6.57;;;;;;;19.07;62.39;99970.31;5117467;28;20086;-69
2022/05/22 05:18:45;;;;;;;7.05;6.50;;;;;;;19.15;62.95;100006.19;5116117;28;20097;-68
2022/05/22 05:21:14;;;;;;;7.20;6.80;;;;;;;19.04;63.37;100000.16;5117098;28;20126;-69
2022/05/22 05:23:41;;;;;;;8.30;7.50;;;;;;;18.99;63.73;99994.72;5104279;28;20130;-66
2022/05/22 05:26:09;;;;;;;8.68;8.18;;;;;;;18.83;64.23;99990.91;5099908;28;20083;-68
2022/05/22 05:28:36;;;;;;;11.63;10.80;;;;;;;18.65;65.21;100005.19;5112205;28;20119;-69
2022/05/22 05:31:03;;;;;;;12.75;12.05;;;;;;;18.45;65.80;100001.25;5097025;28;20051;-70
2022/05/22 05:33:32;;;;;;;11.82;11.32;;;;;;;18.32;66.47;100005.19;5109761;28;20130;-68
2022/05/22 05:36:00;;;;;;;15.98;15.10;;;;;;;18.10;67.89;99997.06;5112926;28;20126;-67
2022/05/22 05:38:27;;;;;;;17.00;16.15;;;;;;;17.91;68.67;99994.72;5105115;28;20127;-67
2022/05/22 05:41:14;;;;;;;19.02;18.02;;;;;;;17.77;69.52;100003.44;5108460;28;20044;-66
2022/05/22 05:43:41;;;;;;;19.23;18.33;;;;;;;17.69;69.57;100002.31;5109925;28;20122;-66
2022/05/22 05:46:10;;;;;;;19.05;18.05;;;;;;;17.72;69.99;100012.09;5111046;28;20090;-66
2022/05/22 05:48:40;;;;;;;19.60;18.27;;;;;;;17.63;70.08;99992.38;5103734;27;20409;-65
2022/05/22 05:51:07;;;;;;;19.90;18.85;;;;;;;17.64;70.53;99994.06;5108199;28;20056;-65
2022/05/22 05:53:34;;;;;;;20.85;19.92;;;;;;;17.70;70.75;100008.78;5107729;27;20475;-65
2022/05/22 05:56:05;;;;;;;19.92;18.98;;;;;;;17.63;70.28;99986.72;5107289;27;20055;-66
2022/05/22 05:58:50;;;;;;;19.08;18.17;;;;;;;17.84;70.37;100025.50;5112108;28;20071;-65
2022/05/22 06:01:18;;;;;;;20.80;19.40;;;;;;;17.75;70.58;99995.28;5109183;28;20149;-66
2022/05/22 06:03:45;;;;;;;20.40;19.50;;;;;;;17.88;70.93;100018.84;5105618;27;20429;-64
2022/05/22 06:06:14;;;;;;;20.20;19.30;;;;;;;17.95;70.62;100024.78;5102713;27;20055;-65
2022/05/22 06:08:43;;;;;;;18.08;17.27;;;;;;;17.91;70.96;100011.66;5103876;27;20833;-65
2022/05/22 06:11:10;;;;;;;16.20;15.30;;;;;;;17.91;71.52;100017.31;5106638;27;20122;-65
2022/05/22 06:13:39;;;;;;;15.30;13.77;;;;;;;17.95;71.11;100018.31;5108100;27;20338;-65
2022/05/22 06:16:08;;;;;;;12.18;11.65;;;;;;;17.99;70.99;100005.13;5105274;27;20166;-65
2022/05/22 06:18:35;;;;;;;12.32;11.63;;;;;;;18.02;71.13;100010.09;5103037;27;20056;-66
2022/05/22 06:21:14;;;;;;;11.60;10.90;;;;;;;18.08;70.52;100011.53;5110390;28;20468;-66
2022/05/22 06:23:41;;;;;;;11.13;10.15;;;;;;;18.15;70.49;100017.47;5108962;28;20455;-66
2022/05/22 06:26:09;;;;;;;9.95;9.25;;;;;;;17.92;70.69;99973.78;5108348;28;20126;-66
2022/05/22 06:28:36;;;;;;;10.55;9.90;;;;;;;18.27;70.38;100013.06;5110601;28;20048;-66
2022/05/22 06:31:05;;;;;;;10.50;9.52;;;;;;;18.43;69.83;100016.91;5111543;27;20462;-66
2022/05/22 06:33:33;;;;;;;9.88;9.38;;;;;;;18.42;69.50;100018.88;5108145;28;20051;-66
2022/05/22 06:36:08;;;;;;;9.57;9.07;;;;;;;18.48;69.38;100017.50;5107671;27;20131;-66
2022/05/22 06:41:21;;;;;;;9.85;9.32;;;;;;;18.69;69.36;100025.94;5111558;28;20047;-65
2022/05/22 06:43:51;;;;;;;8.70;8.20;;;;;;;18.78;68.89;100030.75;5107960;28;20086;-66
2022/05/22 06:46:31;;;;;;;8.65;7.93;;;;;;;18.71;68.45;100014.31;5112135;28;20055;-67
2022/05/22 06:48:59;;;;;;;9.52;8.80;;;;;;;18.59;68.30;99985.97;5106409;28;20311;-66
2022/05/22 06:51:25;;;;;;;8.40;7.90;;;;;;;19.03;67.99;100037.28;5105808;28;20135;-65
2022/05/22 06:53:52;;;;;;;9.00;8.13;;;;;;;19.24;67.75;100052.19;5102702;28;20782;-65
2022/05/22 06:56:19;;;;;;;9.05;8.35;;;;;;;19.44;67.30;100061.78;5110340;28;20070;-66
2022/05/22 06:58:46;;;;;;;8.30;7.80;;;;;;;19.45;67.39;100054.91;5107991;28;20134;-65
2022/05/22 07:01:15;;;;;;;8.80;8.25;;;;;;;19.52;67.09;100043.88;5109051;28;20131;-66
2022/05/22 07:03:42;;;;;;;8.95;8.38;;;;;;;19.70;67.07;100063.50;5108129;28;20128;-66
2022/05/22 07:06:09;;;;;;;9.57;8.95;;;;;;;19.85;66.81;100066.41;5107786;28;20138;-66
2022/05/22 07:08:36;;;;;;;8.10;7.50;;;;;;;20.07;66.34;100076.44;5102394;28;20143;-66
2022/05/22 07:13:48;;;;;;;7.93;7.22;;;;;;;20.35;65.87;100068.00;5106472;28;20134;-66
2022/05/22 07:16:15;;;;;;;7.93;7.22;;;;;;;20.38;65.83;100038.09;5110537;28;20063;-66
2022/05/22 07:18:51;;;;;;;7.97;7.38;;;;;;;20.74;65.40;100078.91;5110321;28;20469;-66
2022/05/22 07:21:18;;;;;;;7.15;6.75;;;;;;;20.86;64.99;100092.22;5105861;28;20083;-66
2022/05/22 07:23:45;;;;;;;7.97;7.28;;;;;;;20.67;64.62;100053.97;5103025;28;20068;-66
2022/05/22 07:26:16;;;;;;;7.68;6.90;;;;;;;20.97;64.52;100096.19;5108035;28;20127;-67
2022/05/22 07:28:42;;;;;;;8.00;7.30;;;;;;;21.02;64.41;100096.72;5110698;28;20083;-67
2022/05/22 07:31:23;;;;;;;7.45;6.78;;;;;;;21.10;64.17;100100.63;5109549;28;20130;-68
2022/05/22 07:33:51;;;;;;;7.90;7.30;;;;;;;21.17;64.10;100097.16;5113493;28;20448;-67
2022/05/22 07:36:18;;;;;;;7.75;7.15;;;;;;;21.14;63.91;100086.53;5104982;27;20647;-66
2022/05/22 07:38:46;;;;;;;8.18;7.68;;;;;;;21.18;64.09;100101.63;5111319;28;20127;-66
2022/05/22 07:41:14;;;;;;;8.60;7.97;;;;;;;21.19;64.19;100103.28;5110952;27;20454;-67
2022/05/22 07:43:41;;;;;;;11.55;10.85;;;;;;;20.95;64.28;100078.69;5108855;27;20043;-66
2022/05/22 07:46:13;;;;;;;8.95;8.35;;;;;;;21.05;64.52;100107.38;5108389;27;20047;-66
2022/05/22 07:48:44;;;;;;;9.07;8.57;;;;;;;20.95;64.59;100107.88;5097393;28;20039;-66
2022/05/22 07:51:12;;;;;;;10.55;9.77;;;;;;;20.93;64.92;100107.44;5109516;27;20079;-66
2022/05/22 07:53:39;;;;;;;9.52;8.77;;;;;;;20.92;64.93;100111.47;5115868;27;20165;-66
2022/05/22 07:56:07;;;;;;;9.45;8.63;;;;;;;20.91;64.86;100118.31;5110733;27;20075;-66
2022/05/22 07:58:34;;;;;;;9.30;8.70;;;;;;;20.87;64.76;100116.56;5113839;28;20044;-66
2022/05/22 08:01:02;;;;;;;10.25;9.23;;;;;;;20.76;64.84;100110.59;5113094;27;20118;-67
2022/05/22 08:03:29;;;;;;;10.05;9.20;;;;;;;20.86;64.98;100118.59;5108859;28;20051;-66
2022/05/22 08:05:56;;;;;;;9.43;8.82;;;;;;;20.86;64.77;100115.75;5106514;28;20043;-66
2022/05/22 08:08:24;;;;;;;9.13;8.52;;;;;;;20.76;64.63;100102.06;5102804;28;20694;-66
2022/05/22 08:10:53;;;;;;;9.57;8.88;;;;;;;20.82;64.93;100112.81;5115286;27;20482;-66
2022/05/22 08:13:20;;;;;;;9.53;8.77;;;;;;;20.75;64.70;100114.59;5112327;27;20460;-67
2022/05/22 08:15:47;;;;;;;9.25;8.65;;;;;;;20.66;64.78;100097.72;5106845;27;20387;-66
2022/05/22 08:18:14;;;;;;;9.55;8.90;;;;;;;20.70;64.78;100106.34;5112624;28;20119;-66
2022/05/22 08:20:43;;;;;;;10.38;9.65;;;;;;;20.78;64.90;100119.53;5104263;28;20126;-67
2022/05/22 08:23:15;;;;;;;8.77;8.27;;;;;;;20.76;64.86;100116.25;5111267;28;20047;-67
2022/05/22 08:25:42;;;;;;;8.98;8.27;;;;;;;20.77;64.89;100115.06;5112076;28;20339;-66
2022/05/22 08:28:09;;;;;;;8.77;8.27;;;;;;;20.67;64.96;100124.09;5106625;27;20131;-66
2022/05/22 08:30:37;;;;;;;9.88;8.95;;;;;;;20.67;64.94;100118.41;5114604;27;20127;-67
2022/05/22 08:33:04;;;;;;;9.25;8.60;;;;;;;20.53;64.85;100105.44;5105977;28;20075;-67
2022/05/22 08:35:35;;;;;;;8.88;8.27;;;;;;;20.68;64.95;100114.38;5110135;28;20075;-67
2022/05/22 08:38:03;;;;;;;9.60;8.48;;;;;;;20.78;64.94;100120.38;5114468;27;20473;-67
2022/05/22 08:40:44;;;;;;;9.23;8.50;;;;;;;20.82;65.19;100126.19;5111380;28;20079;-65
2022/05/22 08:43:15;;;;;;;8.40;7.72;;;;;;;20.87;64.89;100128.75;5112299;27;20134;-67
2022/05/22 08:45:53;;;;;;;8.93;8.43;;;;;;;20.87;64.62;100133.59;5114061;28;20051;-65
2022/05/22 08:48:22;;;;;;;9.88;9.27;;;;;;;20.90;64.85;100122.34;5113923;28;20139;-66
2022/05/22 08:50:50;;;;;;;;;;;;;;;20.86;65.23;100127.09;5110390;28;20079;-66
2022/05/22 08:53:35;;;;;;;8.27;7.78;;;;;;;20.99;65.07;100125.88;5107813;27;19919;-67
2022/05/22 08:59:25;;;;;;;10.88;10.20;;;;;;;21.20;64.72;100124.81;5107491;27;20093;-66
2022/05/22 09:02:21;;;;;;;8.88;8.38;;;;;;;21.34;64.78;100128.09;5098138;28;20198;-67
2022/05/22 09:05:10;;;;;;;7.80;7.22;;;;;;;21.49;64.88;100115.91;5108943;28;20094;-67
2022/05/22 09:07:49;;;;;;;8.98;8.20;;;;;;;21.63;64.71;100108.97;5115013;28;20126;-66
2022/05/22 09:10:22;;;;;;;8.00;7.50;;;;;;;21.55;64.23;100107.94;5113810;27;20084;-67
2022/05/22 09:13:03;;;;;;;8.63;7.95;;;;;;;21.70;64.60;100097.78;5104283;28;20087;-67
2022/05/22 09:16:12;;;;;;;8.52;7.93;;;;;;;21.89;64.30;100106.38;5108080;28;20057;-66
2022/05/22 09:18:54;;;;;;;7.88;7.35;;;;;;;22.19;63.91;100114.47;5110143;28;20220;-67
2022/05/22 09:21:32;;;;;;;8.70;8.10;;;;;;;22.27;63.98;100121.97;5107988;27;20138;-66
2022/05/22 09:24:00;;;;;;;8.52;7.95;;;;;;;22.46;63.33;100133.41;5106422;28;20138;-66
2022/05/22 09:26:52;;;;;;;8.52;7.82;;;;;;;22.58;63.18;100135.28;5108376;28;20142;-67
2022/05/22 09:29:32;;;;;;;8.63;7.90;;;;;;;22.72;62.83;100140.47;5101925;28;20472;-67
2022/05/22 09:32:17;;;;;;;8.65;7.85;;;;;;;22.78;62.59;100141.81;5110832;27;20106;-66
2022/05/22 09:35:07;;;;;;;9.32;8.63;;;;;;;22.64;62.88;100152.88;5107396;27;20071;-67
2022/05/22 09:37:57;;;;;;;10.38;9.48;;;;;;;22.62;62.61;100160.97;5107814;27;20075;-67
2022/05/22 09:40:39;;;;;;;10.48;9.68;;;;;;;22.44;62.63;100144.31;5099960;27;20075;-67
2022/05/22 09:43:06;;;;;;;9.55;8.95;;;;;;;22.62;62.47;100172.34;5107908;27;20135;-67
2022/05/22 09:45:51;;;;;;;11.15;10.30;;;;;;;22.66;62.08;100168.38;5105267;28;20833;-67
2022/05/22 09:48:42;;;;;;;9.27;8.43;;;;;;;22.71;62.36;100173.78;5113864;27;20570;-67
2022/05/22 09:51:33;;;;;;;9.35;8.60;;;;;;;22.53;62.00;100146.97;5144359;27;20481;-68
2022/05/22 09:54:09;;;;;;;13.02;12.02;;;;;;;22.64;62.09;100167.13;5104949;28;20092;-66
2022/05/22 09:57:23;;;;;;;11.30;10.65;;;;;;;22.75;62.37;100161.66;5106297;28;20429;-66
2022/05/22 10:00:11;;;;;;;9.35;8.80;;;;;;;22.90;62.16;100166.47;5099993;28;20526;-66
2022/05/22 10:02:47;;;;;;;9.68;8.85;;;;;;;23.07;61.42;100171.75;5111149;27;20071;-67
2022/05/22 10:05:17;;;;;;;9.77;8.65;;;;;;;23.16;61.67;100180.06;5109126;27;20158;-68
2022/05/22 10:07:56;;;;;;;;;;;;;;;23.22;61.93;100172.06;5106336;28;20495;-68
2022/05/22 10:10:47;;;;;;;8.80;8.17;;;;;;;23.39;61.55;100171.59;5103689;28;19997;-68
2022/05/22 10:13:14;;;;;;;9.20;8.50;;;;;;;23.64;60.79;100178.59;5104318;28;20841;-68
2022/05/22 10:16:08;;;;;;;10.55;9.55;;;;;;;23.71;60.76;100163.69;5110939;27;20086;-67
2022/05/22 10:18:51;;;;;;;9.40;8.60;;;;;;;23.83;60.72;100169.22;5108872;27;20123;-67
2022/05/22 10:21:21;;;;;;;9.13;8.50;;;;;;;24.07;59.87;100187.16;5109358;28;20071;-68
2022/05/22 10:24:33;;;;;;;8.40;7.85;;;;;;;24.16;60.00;100184.84;5099838;28;20139;-68
2022/05/22 10:27:35;;;;;;;9.40;8.65;;;;;;;24.01;60.17;100185.81;5086154;27;20122;-67
2022/05/22 10:30:06;;;;;;;8.85;8.35;;;;;;;23.99;60.02;100196.75;5120138;27;20128;-68
2022/05/22 10:32:58;;;;;;;9.20;8.57;;;;;;;23.75;60.44;100195.94;5110193;27;20044;-67
2022/05/22 10:35:33;;;;;;;11.40;10.50;;;;;;;23.51;60.48;100173.44;5103041;28;20536;-68
2022/05/22 10:38:07;;;;;;;12.35;11.52;;;;;;;23.55;60.03;100194.28;5110422;28;20554;-68
2022/05/22 10:43:24;;;;;;;12.05;11.25;;;;;;;23.68;59.79;100166.47;5106979;28;20516;-68
2022/05/22 10:45:51;;;;;;;10.30;9.63;;;;;;;24.27;59.54;100208.69;5109076;28;20126;-68
2022/05/22 10:48:23;;;;;;;11.05;10.25;;;;;;;24.64;58.88;100213.78;5106313;28;20082;-67
2022/05/22 10:51:11;;;;;;;11.27;10.40;;;;;;;24.97;58.71;100207.31;5100449;28;20500;-69
2022/05/22 10:53:50;;;;;;;9.75;9.05;;;;;;;25.32;58.31;100205.34;5107748;28;20054;-68
2022/05/22 10:56:31;;;;;;;9.43;8.73;;;;;;;25.62;57.68;100211.03;5102365;28;20047;-68
2022/05/22 10:59:07;;;;;;;12.27;11.32;;;;;;;25.81;56.95;100195.72;5111786;28;20122;-70
2022/05/22 11:01:39;;;;;;;10.18;9.10;;;;;;;26.25;56.45;100215.75;5104275;28;20618;-68
2022/05/22 11:04:11;;;;;;;11.02;10.00;;;;;;;26.59;55.66;100216.47;5103785;28;20048;-68
2022/05/22 11:06:51;;;;;;;12.27;11.02;;;;;;;26.58;55.37;100197.66;5106128;28;20051;-67
2022/05/22 11:09:24;;;;;;;11.38;9.77;;;;;;;26.75;55.01;100209.66;5110201;28;20075;-68
2022/05/22 11:11:51;;;;;;;10.02;9.15;;;;;;;27.05;54.56;100224.56;5105631;28;20524;-69
2022/05/22 11:14:24;;;;;;;9.55;8.75;;;;;;;27.45;53.74;100202.63;5111845;27;21913;-67
2022/05/22 11:16:51;;;;;;;10.38;9.32;;;;;;;27.94;53.09;100208.97;5105695;27;20140;-68
2022/05/22 11:19:24;;;;;;;13.77;12.77;;;;;;;28.54;51.65;100209.00;5109258;27;20127;-68
2022/05/22 11:21:51;;;;;;;9.27;8.68;;;;;;;28.67;51.22;100211.47;5105409;27;20051;-68
2022/05/22 11:24:22;;;;;;;9.13;8.43;;;;;;;28.40;51.25;100211.88;5111098;28;20147;-68
2022/05/22 11:27:21;;;;;;;8.90;8.25;;;;;;;27.73;51.88;100187.59;5115156;27;20051;-68
2022/05/22 11:29:54;;;;;;;9.25;8.38;;;;;;;27.35;52.25;100215.75;5119408;27;20078;-68
2022/05/22 11:32:39;;;;;;;8.25;7.63;;;;;;;26.93;52.67;100211.38;5106662;27;20529;-67
2022/05/22 11:35:15;;;;;;;9.00;8.40;;;;;;;26.69;52.50;100212.88;5111116;27;20129;-68
2022/05/22 11:38:29;;;;;;;8.48;7.88;;;;;;;26.69;52.44;100207.13;5115138;27;20130;-67
2022/05/22 11:41:07;;;;;;;9.18;8.48;;;;;;;26.98;52.16;100204.47;5103404;27;20174;-67
2022/05/22 11:44:01;;;;;;;10.87;10.17;;;;;;;27.80;51.77;100206.91;5111556;28;20079;-68
2022/05/22 11:47:12;;;;;;;10.02;9.07;;;;;;;28.49;51.61;100205.75;5104593;27;20849;-67
2022/05/22 11:50:07;;;;;;;7.88;7.18;;;;;;;28.79;50.05;100205.28;5068056;28;20051;-67
2022/05/22 11:53:11;;;;;;;8.73;8.05;;;;;;;28.93;50.32;100202.38;5107870;28;20475;-68
2022/05/22 11:56:22;;;;;;;8.82;8.30;;;;;;;29.88;48.74;100201.59;5112689;27;20130;-66
2022/05/22 11:59:07;;;;;;;7.65;6.95;;;;;;;30.80;46.20;100194.25;5084499;28;20135;-66
2022/05/22 12:02:04;;;;;;;8.90;8.00;;;;;;;31.43;44.90;100190.28;5111476;27;20126;-66
2022/05/22 12:04:40;;;;;;;7.93;7.30;;;;;;;31.92;43.17;100205.28;5111018;27;20134;-67